Aviation Digital Data Service (ADDS)

Output produced by METARs form (2357 UTC 29 May 2020)
found at http://www.aviationweather.gov/metar/data/
 
METAR text: KPNS 292353Z AUTO 20006KT 10SM CLR 27/21 A2998 RMK AO2 SLP152 T02720206 10311 20272 55003
Conditions at: KPNS (PENSACOLA , FL, US) observed 2353 UTC 29 May 2020
Temperature: 27.2°C (81°F)
Dewpoint: 20.6°C (69°F) [RH = 67%]
Pressure (altimeter): 29.98 inches Hg (1015.3 mb)
[Sea-level pressure: 1015.2 mb]
Winds: from the SSW (200 degrees) at 7 MPH (6 knots; 3.1 m/s)
Visibility: 10 or more miles (16+ km)
Ceiling: at least 12,000 feet AGL
Clouds: sky clear below 12,000 feet AGL
Weather: automated observation with no human augmentation;
there may or may not be significant weather present at this time

METAR text: KPNS 292253Z 18008KT 10SM CLR 28/21 A2997 RMK AO2 SLP151 T02780206
Conditions at: KPNS (PENSACOLA , FL, US) observed 2253 UTC 29 May 2020
Temperature: 27.8°C (82°F)
Dewpoint: 20.6°C (69°F) [RH = 65%]
Pressure (altimeter): 29.97 inches Hg (1015.0 mb)
[Sea-level pressure: 1015.1 mb]
Winds: from the S (180 degrees) at 9 MPH (8 knots; 4.1 m/s)
Visibility: 10 or more miles (16+ km)
Ceiling: at least 12,000 feet AGL
Clouds: sky clear below 12,000 feet AGL
Weather: no significant weather observed at this time

METAR text: KPNS 292153Z 21006KT 10SM CLR 28/19 A2998 RMK AO2 SLP153 T02830189
Conditions at: KPNS (PENSACOLA , FL, US) observed 2153 UTC 29 May 2020
Temperature: 28.3°C (83°F)
Dewpoint: 18.9°C (66°F) [RH = 57%]
Pressure (altimeter): 29.98 inches Hg (1015.3 mb)
[Sea-level pressure: 1015.3 mb]
Winds: from the SSW (210 degrees) at 7 MPH (6 knots; 3.1 m/s)
Visibility: 10 or more miles (16+ km)
Ceiling: at least 12,000 feet AGL
Clouds: sky clear below 12,000 feet AGL
Weather: no significant weather observed at this time

METAR text: KPNS 292053Z 20010KT 10SM CLR 28/21 A2999 RMK AO2 SLP155 T02830206 58002
Conditions at: KPNS (PENSACOLA , FL, US) observed 2053 UTC 29 May 2020
Temperature: 28.3°C (83°F)
Dewpoint: 20.6°C (69°F) [RH = 63%]
Pressure (altimeter): 29.99 inches Hg (1015.7 mb)
[Sea-level pressure: 1015.5 mb]
Winds: from the SSW (200 degrees) at 12 MPH (10 knots; 5.1 m/s)
Visibility: 10 or more miles (16+ km)
Ceiling: at least 12,000 feet AGL
Clouds: sky clear below 12,000 feet AGL
Weather: no significant weather observed at this time

METAR text: KPNS 291953Z 20010KT 10SM CLR 29/20 A2999 RMK AO2 SLP156 T02940200
Conditions at: KPNS (PENSACOLA , FL, US) observed 1953 UTC 29 May 2020
Temperature: 29.4°C (85°F)
Dewpoint: 20.0°C (68°F) [RH = 57%]
Pressure (altimeter): 29.99 inches Hg (1015.7 mb)
[Sea-level pressure: 1015.6 mb]
Winds: from the SSW (200 degrees) at 12 MPH (10 knots; 5.1 m/s)
Visibility: 10 or more miles (16+ km)
Ceiling: at least 12,000 feet AGL
Clouds: sky clear below 12,000 feet AGL
Weather: no significant weather observed at this time

METAR text: KPNS 291853Z 18011KT 10SM SCT044 30/20 A2999 RMK AO2 SLP157 T03000200
Conditions at: KPNS (PENSACOLA , FL, US) observed 1853 UTC 29 May 2020
Temperature: 30.0°C (86°F)
Dewpoint: 20.0°C (68°F) [RH = 55%]
Pressure (altimeter): 29.99 inches Hg (1015.7 mb)
[Sea-level pressure: 1015.7 mb]
Winds: from the S (180 degrees) at 13 MPH (11 knots; 5.7 m/s)
Visibility: 10 or more miles (16+ km)
Ceiling: at least 12,000 feet AGL
Clouds: scattered clouds at 4400 feet AGL
Weather: no significant weather observed at this time

METAR text: KPNS 291753Z COR 18010KT 10SM SCT044 31/21 A2999 RMK AO2 SLP157 T03110206 10311 20250 58012
Conditions at: KPNS (PENSACOLA , FL, US) observed 1753 UTC 29 May 2020
Temperature: 31.1°C (88°F)
Dewpoint: 20.6°C (69°F) [RH = 54%]
Pressure (altimeter): 29.99 inches Hg (1015.7 mb)
[Sea-level pressure: 1015.7 mb]
Winds: from the S (180 degrees) at 12 MPH (10 knots; 5.1 m/s)
Visibility: 10 or more miles (16+ km)
Ceiling: at least 12,000 feet AGL
Clouds: scattered clouds at 4400 feet AGL
Weather: no significant weather observed at this time

METAR text: KPNS 291653Z VRB05KT 10SM SCT038 BKN055 31/20 A3000 RMK AO2 SLP161 T03060200
Conditions at: KPNS (PENSACOLA , FL, US) observed 1653 UTC 29 May 2020
Temperature: 30.6°C (87°F)
Dewpoint: 20.0°C (68°F) [RH = 53%]
Pressure (altimeter): 30.00 inches Hg (1016.0 mb)
[Sea-level pressure: 1016.1 mb]
Winds: variable direction winds at 6 MPH (5 knots; 2.6 m/s)
Visibility: 10 or more miles (16+ km)
Ceiling: 5500 feet AGL
Clouds: scattered clouds at 3800 feet AGL
broken clouds at 5500 feet AGL
Weather: no significant weather observed at this time

METAR text: KPNS 291553Z 20008KT 10SM FEW036 SCT055 30/20 A3002 RMK AO2 SLP167 T03000200
Conditions at: KPNS (PENSACOLA , FL, US) observed 1553 UTC 29 May 2020
Temperature: 30.0°C (86°F)
Dewpoint: 20.0°C (68°F) [RH = 55%]
Pressure (altimeter): 30.02 inches Hg (1016.7 mb)
[Sea-level pressure: 1016.7 mb]
Winds: from the SSW (200 degrees) at 9 MPH (8 knots; 4.1 m/s)
Visibility: 10 or more miles (16+ km)
Ceiling: at least 12,000 feet AGL
Clouds: few clouds at 3600 feet AGL
scattered clouds at 5500 feet AGL
Weather: no significant weather observed at this time

METAR text: KPNS 291453Z 11005KT 10SM SCT050 28/21 A3003 RMK AO2 SLP169 T02780211 51007
Conditions at: KPNS (PENSACOLA , FL, US) observed 1453 UTC 29 May 2020
Temperature: 27.8°C (82°F)
Dewpoint: 21.1°C (70°F) [RH = 67%]
Pressure (altimeter): 30.03 inches Hg (1017.0 mb)
[Sea-level pressure: 1016.9 mb]
Winds: from the ESE (110 degrees) at 6 MPH (5 knots; 2.6 m/s)
Visibility: 10 or more miles (16+ km)
Ceiling: at least 12,000 feet AGL
Clouds: scattered clouds at 5000 feet AGL
Weather: no significant weather observed at this time

METAR text: KPNS 291353Z 20003KT 10SM SCT026 BKN048 27/21 A3002 RMK AO2 SLP168 T02720211
Conditions at: KPNS (PENSACOLA , FL, US) observed 1353 UTC 29 May 2020
Temperature: 27.2°C (81°F)
Dewpoint: 21.1°C (70°F) [RH = 69%]
Pressure (altimeter): 30.02 inches Hg (1016.7 mb)
[Sea-level pressure: 1016.8 mb]
Winds: from the SSW (200 degrees) at 3 MPH (3 knots; 1.5 m/s)
Visibility: 10 or more miles (16+ km)
Ceiling: 4800 feet AGL
Clouds: scattered clouds at 2600 feet AGL
broken clouds at 4800 feet AGL
Weather: no significant weather observed at this time

METAR text: KPNS 291253Z 00000KT 10SM FEW050 26/22 A3001 RMK AO2 SLP164 T02610217
Conditions at: KPNS (PENSACOLA , FL, US) observed 1253 UTC 29 May 2020
Temperature: 26.1°C (79°F)
Dewpoint: 21.7°C (71°F) [RH = 77%]
Pressure (altimeter): 30.01 inches Hg (1016.3 mb)
[Sea-level pressure: 1016.4 mb]
Winds: calm
Visibility: 10 or more miles (16+ km)
Ceiling: at least 12,000 feet AGL
Clouds: few clouds at 5000 feet AGL
Weather: no significant weather observed at this time

METAR text: KPNS 291153Z 25004KT 10SM FEW030 SCT048 25/21 A3001 RMK AO2 SLP161 60000 T02500211 10250 20233 53004
Conditions at: KPNS (PENSACOLA , FL, US) observed 1153 UTC 29 May 2020
Temperature: 25.0°C (77°F)
Dewpoint: 21.1°C (70°F) [RH = 79%]
Pressure (altimeter): 30.01 inches Hg (1016.3 mb)
[Sea-level pressure: 1016.1 mb]
Winds: from the WSW (250 degrees) at 5 MPH (4 knots; 2.1 m/s)
Visibility: 10 or more miles (16+ km)
Ceiling: at least 12,000 feet AGL
Clouds: few clouds at 3000 feet AGL
scattered clouds at 4800 feet AGL
Weather: no significant weather observed at this time

METAR text: KPNS 291056Z 22004KT 10SM FEW030 SCT048 23/21 A2999 RMK AO2 T02330211
Conditions at: KPNS (PENSACOLA , FL, US) observed 1056 UTC 29 May 2020
Temperature: 23.3°C (74°F)
Dewpoint: 21.1°C (70°F) [RH = 87%]
Pressure (altimeter): 29.99 inches Hg (1015.7 mb)
Winds: from the SW (220 degrees) at 5 MPH (4 knots; 2.1 m/s)
Visibility: 10 or more miles (16+ km)
Ceiling: at least 12,000 feet AGL
Clouds: few clouds at 3000 feet AGL
scattered clouds at 4800 feet AGL
Weather: no significant weather observed at this time

METAR text: KPNS 291053Z 21003KT 10SM CLR 23/21 A2999 RMK AO2 RAE0956 SLP157 P0000 T02330211
Conditions at: KPNS (PENSACOLA , FL, US) observed 1053 UTC 29 May 2020
Temperature: 23.3°C (74°F)
Dewpoint: 21.1°C (70°F) [RH = 87%]
Pressure (altimeter): 29.99 inches Hg (1015.7 mb)
[Sea-level pressure: 1015.7 mb]
Winds: from the SSW (210 degrees) at 3 MPH (3 knots; 1.5 m/s)
Visibility: 10 or more miles (16+ km)
Ceiling: at least 12,000 feet AGL
Clouds: sky clear below 12,000 feet AGL
Weather: no significant weather observed at this time

METAR text: KPNS 290953Z AUTO 12005KT 10SM -RA FEW023 SCT035 BKN043 24/21 A2998 RMK AO2 RAB45 SLP152 P0000 T02440211
Conditions at: KPNS (PENSACOLA , FL, US) observed 0953 UTC 29 May 2020
Temperature: 24.4°C (76°F)
Dewpoint: 21.1°C (70°F) [RH = 82%]
Pressure (altimeter): 29.98 inches Hg (1015.3 mb)
[Sea-level pressure: 1015.2 mb]
Winds: from the ESE (120 degrees) at 6 MPH (5 knots; 2.6 m/s)
Visibility: 10 or more miles (16+ km)
Ceiling: 4300 feet AGL
Clouds: few clouds at 2300 feet AGL
scattered clouds at 3500 feet AGL
broken clouds at 4300 feet AGL
Weather: -RA  (light rain)

METAR text: KPNS 290853Z AUTO 15006KT 10SM CLR 24/21 A2999 RMK AO2 SLP158 60000 T02440211 55004
Conditions at: KPNS (PENSACOLA , FL, US) observed 0853 UTC 29 May 2020
Temperature: 24.4°C (76°F)
Dewpoint: 21.1°C (70°F) [RH = 82%]
Pressure (altimeter): 29.99 inches Hg (1015.7 mb)
[Sea-level pressure: 1015.8 mb]
Winds: from the SSE (150 degrees) at 7 MPH (6 knots; 3.1 m/s)
Visibility: 10 or more miles (16+ km)
Ceiling: at least 12,000 feet AGL
Clouds: sky clear below 12,000 feet AGL
Weather: automated observation with no human augmentation;
there may or may not be significant weather present at this time

METAR text: KPNS 290753Z AUTO 15006KT 10SM FEW017 SCT038 SCT060 24/22 A2999 RMK AO2 RAB37E47 SLP156 P0000 T02440217
Conditions at: KPNS (PENSACOLA , FL, US) observed 0753 UTC 29 May 2020
Temperature: 24.4°C (76°F)
Dewpoint: 21.7°C (71°F) [RH = 85%]
Pressure (altimeter): 29.99 inches Hg (1015.7 mb)
[Sea-level pressure: 1015.6 mb]
Winds: from the SSE (150 degrees) at 7 MPH (6 knots; 3.1 m/s)
Visibility: 10 or more miles (16+ km)
Ceiling: at least 12,000 feet AGL
Clouds: few clouds at 1700 feet AGL
scattered clouds at 3800 feet AGL
scattered clouds at 6000 feet AGL
Weather: automated observation with no human augmentation;
there may or may not be significant weather present at this time

METAR text: KPNS 290653Z AUTO 00000KT 10SM SCT024 SCT030 BKN037 24/21 A3000 RMK AO2 SLP159 T02390206
Conditions at: KPNS (PENSACOLA , FL, US) observed 0653 UTC 29 May 2020
Temperature: 23.9°C (75°F)
Dewpoint: 20.6°C (69°F) [RH = 82%]
Pressure (altimeter): 30.00 inches Hg (1016.0 mb)
[Sea-level pressure: 1015.9 mb]
Winds: calm
Visibility: 10 or more miles (16+ km)
Ceiling: 3700 feet AGL
Clouds: scattered clouds at 2400 feet AGL
scattered clouds at 3000 feet AGL
broken clouds at 3700 feet AGL
Weather: automated observation with no human augmentation;
there may or may not be significant weather present at this time

METAR text: KPNS 290553Z AUTO 00000KT 10SM CLR 24/21 A3001 RMK AO2 SLP162 T02390211 10261 20239 403220239 50002
Conditions at: KPNS (PENSACOLA , FL, US) observed 0553 UTC 29 May 2020
Temperature: 23.9°C (75°F)
Dewpoint: 21.1°C (70°F) [RH = 84%]
Pressure (altimeter): 30.01 inches Hg (1016.3 mb)
[Sea-level pressure: 1016.2 mb]
Winds: calm
Visibility: 10 or more miles (16+ km)
Ceiling: at least 12,000 feet AGL
Clouds: sky clear below 12,000 feet AGL
Weather: automated observation with no human augmentation;
there may or may not be significant weather present at this time

METAR text: KPNS 290453Z AUTO 00000KT 10SM CLR 24/22 A3003 RMK AO2 SLP168 T02440217
Conditions at: KPNS (PENSACOLA , FL, US) observed 0453 UTC 29 May 2020
Temperature: 24.4°C (76°F)
Dewpoint: 21.7°C (71°F) [RH = 85%]
Pressure (altimeter): 30.03 inches Hg (1017.0 mb)
[Sea-level pressure: 1016.8 mb]
Winds: calm
Visibility: 10 or more miles (16+ km)
Ceiling: at least 12,000 feet AGL
Clouds: sky clear below 12,000 feet AGL
Weather: automated observation with no human augmentation;
there may or may not be significant weather present at this time

METAR text: KPNS 290353Z 00000KT 10SM CLR 25/22 A3000 RMK AO2 SLP158 T02500222
Conditions at: KPNS (PENSACOLA , FL, US) observed 0353 UTC 29 May 2020
Temperature: 25.0°C (77°F)
Dewpoint: 22.2°C (72°F) [RH = 84%]
Pressure (altimeter): 30.00 inches Hg (1016.0 mb)
[Sea-level pressure: 1015.8 mb]
Winds: calm
Visibility: 10 or more miles (16+ km)
Ceiling: at least 12,000 feet AGL
Clouds: sky clear below 12,000 feet AGL
Weather: no significant weather observed at this time

METAR text: KPNS 290253Z 22007KT 10SM CLR 25/23 A3000 RMK AO2 SLP160 T02500228 53009
Conditions at: KPNS (PENSACOLA , FL, US) observed 0253 UTC 29 May 2020
Temperature: 25.0°C (77°F)
Dewpoint: 22.8°C (73°F) [RH = 88%]
Pressure (altimeter): 30.00 inches Hg (1016.0 mb)
[Sea-level pressure: 1016.0 mb]
Winds: from the SW (220 degrees) at 8 MPH (7 knots; 3.6 m/s)
Visibility: 10 or more miles (16+ km)
Ceiling: at least 12,000 feet AGL
Clouds: sky clear below 12,000 feet AGL
Weather: no significant weather observed at this time

METAR text: KPNS 290153Z 18009KT 10SM FEW013 FEW022 26/23 A2998 RMK AO2 SLP153 T02560233
Conditions at: KPNS (PENSACOLA , FL, US) observed 0153 UTC 29 May 2020
Temperature: 25.6°C (78°F)
Dewpoint: 23.3°C (74°F) [RH = 87%]
Pressure (altimeter): 29.98 inches Hg (1015.3 mb)
[Sea-level pressure: 1015.3 mb]
Winds: from the S (180 degrees) at 10 MPH (9 knots; 4.6 m/s)
Visibility: 10 or more miles (16+ km)
Ceiling: at least 12,000 feet AGL
Clouds: few clouds at 1300 feet AGL
few clouds at 2200 feet AGL
Weather: no significant weather observed at this time

METAR text: KPNS 290143Z 18007KT 10SM SCT014 SCT022 26/23 A2998 RMK AO2 T02560233
Conditions at: KPNS (PENSACOLA , FL, US) observed 0143 UTC 29 May 2020
Temperature: 25.6°C (78°F)
Dewpoint: 23.3°C (74°F) [RH = 87%]
Pressure (altimeter): 29.98 inches Hg (1015.3 mb)
Winds: from the S (180 degrees) at 8 MPH (7 knots; 3.6 m/s)
Visibility: 10 or more miles (16+ km)
Ceiling: at least 12,000 feet AGL
Clouds: scattered clouds at 1400 feet AGL
scattered clouds at 2200 feet AGL
Weather: no significant weather observed at this time

METAR text: KPNS 290121Z 17008KT 10SM SCT014 BKN021 26/23 A2998 RMK AO2 T02610233
Conditions at: KPNS (PENSACOLA , FL, US) observed 0121 UTC 29 May 2020
Temperature: 26.1°C (79°F)
Dewpoint: 23.3°C (74°F) [RH = 85%]
Pressure (altimeter): 29.98 inches Hg (1015.3 mb)
Winds: from the S (170 degrees) at 9 MPH (8 knots; 4.1 m/s)
Visibility: 10 or more miles (16+ km)
Ceiling: 2100 feet AGL
Clouds: scattered clouds at 1400 feet AGL
broken clouds at 2100 feet AGL
Weather: no significant weather observed at this time

METAR text: KPNS 290053Z 17008KT 10SM FEW016 26/23 A2999 RMK AO2 SLP155 T02610228
Conditions at: KPNS (PENSACOLA , FL, US) observed 0053 UTC 29 May 2020
Temperature: 26.1°C (79°F)
Dewpoint: 22.8°C (73°F) [RH = 82%]
Pressure (altimeter): 29.99 inches Hg (1015.7 mb)
[Sea-level pressure: 1015.5 mb]
Winds: from the S (170 degrees) at 9 MPH (8 knots; 4.1 m/s)
Visibility: 10 or more miles (16+ km)
Ceiling: at least 12,000 feet AGL
Clouds: few clouds at 1600 feet AGL
Weather: no significant weather observed at this time

METAR text: KPNS 282353Z 17010KT 10SM CLR 26/22 A2998 RMK AO2 SLP151 T02610222 10322 20261 51001
Conditions at: KPNS (PENSACOLA , FL, US) observed 2353 UTC 28 May 2020
Temperature: 26.1°C (79°F)
Dewpoint: 22.2°C (72°F) [RH = 79%]
Pressure (altimeter): 29.98 inches Hg (1015.3 mb)
[Sea-level pressure: 1015.1 mb]
Winds: from the S (170 degrees) at 12 MPH (10 knots; 5.1 m/s)
Visibility: 10 or more miles (16+ km)
Ceiling: at least 12,000 feet AGL
Clouds: sky clear below 12,000 feet AGL
Weather: no significant weather observed at this time

METAR text: KPNS 282253Z 19011KT 10SM CLR 27/21 A2997 RMK AO2 SLP150 T02670211
Conditions at: KPNS (PENSACOLA , FL, US) observed 2253 UTC 28 May 2020
Temperature: 26.7°C (80°F)
Dewpoint: 21.1°C (70°F) [RH = 71%]
Pressure (altimeter): 29.97 inches Hg (1015.0 mb)
[Sea-level pressure: 1015.0 mb]
Winds: from the S (190 degrees) at 13 MPH (11 knots; 5.7 m/s)
Visibility: 10 or more miles (16+ km)
Ceiling: at least 12,000 feet AGL
Clouds: sky clear below 12,000 feet AGL
Weather: no significant weather observed at this time

METAR text: KPNS 282153Z 20012KT 10SM CLR 27/20 A3000 RMK AO2 SLP161 T02720200
Conditions at: KPNS (PENSACOLA , FL, US) observed 2153 UTC 28 May 2020
Temperature: 27.2°C (81°F)
Dewpoint: 20.0°C (68°F) [RH = 65%]
Pressure (altimeter): 30.00 inches Hg (1016.0 mb)
[Sea-level pressure: 1016.1 mb]
Winds: from the SSW (200 degrees) at 14 MPH (12 knots; 6.2 m/s)
Visibility: 10 or more miles (16+ km)
Ceiling: at least 12,000 feet AGL
Clouds: sky clear below 12,000 feet AGL
Weather: no significant weather observed at this time

METAR text: KPNS 282053Z 20011KT 10SM CLR 28/20 A2997 RMK AO2 SLP150 T02830200 58007
Conditions at: KPNS (PENSACOLA , FL, US) observed 2053 UTC 28 May 2020
Temperature: 28.3°C (83°F)
Dewpoint: 20.0°C (68°F) [RH = 61%]
Pressure (altimeter): 29.97 inches Hg (1015.0 mb)
[Sea-level pressure: 1015.0 mb]
Winds: from the SSW (200 degrees) at 13 MPH (11 knots; 5.7 m/s)
Visibility: 10 or more miles (16+ km)
Ceiling: at least 12,000 feet AGL
Clouds: sky clear below 12,000 feet AGL
Weather: no significant weather observed at this time

METAR text: KPNS 281953Z 18012KT 10SM CLR 29/22 A2998 RMK AO2 SLP153 T02890217
Conditions at: KPNS (PENSACOLA , FL, US) observed 1953 UTC 28 May 2020
Temperature: 28.9°C (84°F)
Dewpoint: 21.7°C (71°F) [RH = 65%]
Pressure (altimeter): 29.98 inches Hg (1015.3 mb)
[Sea-level pressure: 1015.3 mb]
Winds: from the S (180 degrees) at 14 MPH (12 knots; 6.2 m/s)
Visibility: 10 or more miles (16+ km)
Ceiling: at least 12,000 feet AGL
Clouds: sky clear below 12,000 feet AGL
Weather: no significant weather observed at this time

METAR text: KPNS 281853Z 16012KT 10SM CLR 31/22 A2999 RMK AO2 SLP157 T03110217
Conditions at: KPNS (PENSACOLA , FL, US) observed 1853 UTC 28 May 2020
Temperature: 31.1°C (88°F)
Dewpoint: 21.7°C (71°F) [RH = 57%]
Pressure (altimeter): 29.99 inches Hg (1015.7 mb)
[Sea-level pressure: 1015.7 mb]
Winds: from the SSE (160 degrees) at 14 MPH (12 knots; 6.2 m/s)
Visibility: 10 or more miles (16+ km)
Ceiling: at least 12,000 feet AGL
Clouds: sky clear below 12,000 feet AGL
Weather: no significant weather observed at this time

METAR text: KPNS 281653Z 22009KT 10SM FEW046 32/18 A3000 RMK AO2 SLP158 T03220183
Conditions at: KPNS (PENSACOLA , FL, US) observed 1653 UTC 28 May 2020
Temperature: 32.2°C (90°F)
Dewpoint: 18.3°C (65°F) [RH = 44%]
Pressure (altimeter): 30.00 inches Hg (1016.0 mb)
[Sea-level pressure: 1015.8 mb]
Winds: from the SW (220 degrees) at 10 MPH (9 knots; 4.6 m/s)
Visibility: 10 or more miles (16+ km)
Ceiling: at least 12,000 feet AGL
Clouds: few clouds at 4600 feet AGL
Weather: no significant weather observed at this time

METAR text: KPNS 281253Z 25009KT 10SM CLR 27/23 A3000 RMK AO2 SLP159 T02720228
Conditions at: KPNS (PENSACOLA , FL, US) observed 1253 UTC 28 May 2020
Temperature: 27.2°C (81°F)
Dewpoint: 22.8°C (73°F) [RH = 77%]
Pressure (altimeter): 30.00 inches Hg (1016.0 mb)
[Sea-level pressure: 1015.9 mb]
Winds: from the WSW (250 degrees) at 10 MPH (9 knots; 4.6 m/s)
Visibility: 10 or more miles (16+ km)
Ceiling: at least 12,000 feet AGL
Clouds: sky clear below 12,000 feet AGL
Weather: no significant weather observed at this time

Forecast for: KPNS (PENSACOLA , FL, US)
Text: KPNS 292340Z 3000/3024 20007KT P6SM SHRA SCT100 BKN250
Forecast period: 0000 to 0300 UTC 30 May 2020
Forecast type: FROM: standard forecast or significant change
Winds: from the SSW (200 degrees) at 8 MPH (7 knots; 3.6 m/s)
Visibility: 6 or more miles 10+ km)
Ceiling: 25000 feet AGL
Clouds: scattered clouds at 10000 feet AGL
broken clouds at 25000 feet AGL
Weather: SHRA  (rain showers)
Text: FM300300 00000KT P6SM BKN100
Forecast period: 0300 to 1900 UTC 30 May 2020
Forecast type: FROM: standard forecast or significant change
Winds: calm
Visibility: 6 or more miles 10+ km)
Ceiling: 10000 feet AGL
Clouds: broken clouds at 10000 feet AGL
Weather: no significant weather forecast for this period
Text: FM301900 19007KT P6SM SCT040 BKN100
Forecast period: 1900 UTC 30 May 2020 to 0000 UTC 31 May 2020
Forecast type: FROM: standard forecast or significant change
Winds: from the S (190 degrees) at 8 MPH (7 knots; 3.6 m/s)
Visibility: 6 or more miles 10+ km)
Ceiling: 10000 feet AGL
Clouds: scattered clouds at 4000 feet AGL
broken clouds at 10000 feet AGL
Weather: no significant weather forecast for this period